createdAt,value
2023-03-22T00:03:04.269Z,37.05
2023-03-22T00:07:04.199Z,37.08
2023-03-22T00:11:04.151Z,37.06
2023-03-22T00:15:04.130Z,37.04
2023-03-22T00:19:04.088Z,37.00
2023-03-22T00:23:04.055Z,36.99
2023-03-22T00:27:04.032Z,37.00
2023-03-22T00:31:04.017Z,37.04
2023-03-22T00:35:03.984Z,37.10
2023-03-22T00:39:03.921Z,37.17
2023-03-22T00:43:03.878Z,37.16
2023-03-22T00:47:03.843Z,37.22
2023-03-22T00:51:03.843Z,37.21
2023-03-22T00:55:03.784Z,37.25
2023-03-22T00:59:03.728Z,37.25
2023-03-22T01:03:03.689Z,37.28
2023-03-22T01:07:03.676Z,37.30
2023-03-22T01:11:03.607Z,37.30
2023-03-22T01:15:03.641Z,37.38
2023-03-22T01:19:03.579Z,37.43
2023-03-22T01:23:03.515Z,37.51
2023-03-22T01:27:03.501Z,37.48
2023-03-22T01:31:03.532Z,37.52
2023-03-22T01:35:03.531Z,37.51
2023-03-22T01:39:03.574Z,37.48
2023-03-22T01:43:03.670Z,37.46
2023-03-22T01:47:03.735Z,37.43
2023-03-22T01:51:03.878Z,37.35
2023-03-22T01:55:03.896Z,37.32
2023-03-22T01:59:04.028Z,37.31
2023-03-22T02:03:04.165Z,37.31
2023-03-22T02:07:04.255Z,37.35
2023-03-22T02:11:04.382Z,37.31
2023-03-22T02:15:04.483Z,37.23
2023-03-22T02:19:04.556Z,37.26
2023-03-22T02:23:04.710Z,37.24
2023-03-22T02:27:04.832Z,37.17
2023-03-22T02:31:05.024Z,37.12
2023-03-22T02:35:05.141Z,37.11
2023-03-22T02:39:05.335Z,37.09
2023-03-22T02:43:05.460Z,37.06
2023-03-22T02:47:05.622Z,37.07
2023-03-22T02:51:05.779Z,37.08
2023-03-22T02:55:05.980Z,37.08
2023-03-22T02:59:06.118Z,37.13
2023-03-22T03:03:06.310Z,37.16
2023-03-22T03:07:06.463Z,37.07
2023-03-22T03:11:06.700Z,37.00
2023-03-22T03:15:06.911Z,36.99
2023-03-22T03:19:06.994Z,37.01
2023-03-22T03:23:07.153Z,37.00
2023-03-22T03:27:07.354Z,37.04
2023-03-22T03:31:07.530Z,37.10
2023-03-22T03:35:07.751Z,37.17
2023-03-22T03:39:08.005Z,37.15
2023-03-22T03:43:07.940Z,37.23
2023-03-22T03:47:07.919Z,37.22
2023-03-22T03:51:07.912Z,37.27
2023-03-22T03:55:07.836Z,37.27
2023-03-22T03:59:07.786Z,37.36
2023-03-22T04:03:07.778Z,37.30
2023-03-22T04:07:07.747Z,37.29
2023-03-22T04:11:07.672Z,37.31
2023-03-22T04:15:07.692Z,37.36
2023-03-22T04:19:07.819Z,37.38
2023-03-22T04:23:07.793Z,37.35
2023-03-22T04:27:07.751Z,37.34
2023-03-22T04:31:07.782Z,37.35
2023-03-22T04:35:07.687Z,37.33
2023-03-22T04:39:07.645Z,37.35
2023-03-22T04:43:07.624Z,37.38
2023-03-22T04:47:07.575Z,37.36
2023-03-22T04:51:07.556Z,37.42
2023-03-22T04:55:07.544Z,37.43
2023-03-22T04:59:07.471Z,37.45
2023-03-22T05:03:07.569Z,37.44
2023-03-22T05:07:07.389Z,37.46
2023-03-22T05:11:07.385Z,37.45
2023-03-22T05:15:07.360Z,37.45
2023-03-22T05:19:07.277Z,37.37
2023-03-22T05:23:07.275Z,37.34
2023-03-22T05:27:07.220Z,37.36
2023-03-22T05:31:07.203Z,37.36
2023-03-22T05:35:07.145Z,37.41
2023-03-22T05:39:07.128Z,37.45
2023-03-22T05:43:07.066Z,37.43
2023-03-22T05:47:07.179Z,37.41
2023-03-22T05:51:07.034Z,37.57
2023-03-22T05:55:06.976Z,38.69
2023-03-22T05:59:06.964Z,38.38
2023-03-22T06:03:07.050Z,38.30
2023-03-22T06:07:06.880Z,38.25
2023-03-22T06:11:06.853Z,38.21
2023-03-22T06:15:06.845Z,38.23
2023-03-22T06:19:06.814Z,38.25
2023-03-22T06:23:06.808Z,38.36
2023-03-22T06:27:06.746Z,38.47
2023-03-22T06:31:06.757Z,38.40
2023-03-22T06:35:06.827Z,38.44
2023-03-22T06:39:06.793Z,38.49
2023-03-22T06:43:07.453Z,38.65
2023-03-22T06:47:06.775Z,40.04
2023-03-22T06:51:06.507Z,40.42
2023-03-22T06:55:06.803Z,42.58
2023-03-22T06:59:06.805Z,42.95
2023-03-22T07:03:06.780Z,43.35
2023-03-22T07:07:06.454Z,44.27
2023-03-22T07:11:06.799Z,45.11
2023-03-22T07:15:06.765Z,45.34
2023-03-22T07:19:06.867Z,45.57
2023-03-22T07:23:06.926Z,46.41
2023-03-22T07:27:06.952Z,46.86
2023-03-22T07:31:07.318Z,47.01
2023-03-22T07:35:06.942Z,46.96
2023-03-22T07:39:07.309Z,47.10
2023-03-22T07:43:07.029Z,48.27
2023-03-22T07:47:07.306Z,48.02
2023-03-22T07:51:07.309Z,45.49
2023-03-22T07:55:07.292Z,46.38
2023-03-22T07:59:07.016Z,45.59
2023-03-22T08:03:07.815Z,46.82
2023-03-22T08:07:07.327Z,47.96
2023-03-22T08:11:06.787Z,48.43
2023-03-22T08:15:06.740Z,48.85
2023-03-22T08:19:06.701Z,49.12
2023-03-22T08:23:06.687Z,49.41
2023-03-22T08:27:06.708Z,50.61
2023-03-22T08:31:06.814Z,50.26
2023-03-22T08:35:06.527Z,49.82
2023-03-22T08:39:06.832Z,49.56
2023-03-22T08:43:06.795Z,49.75
2023-03-22T08:47:06.879Z,48.72
2023-03-22T08:51:06.893Z,48.29
2023-03-22T08:55:06.546Z,48.74
2023-03-22T08:59:06.681Z,47.97
2023-03-22T09:03:06.829Z,47.36
2023-03-22T09:07:06.897Z,48.62
2023-03-22T09:11:07.038Z,49.42
2023-03-22T09:15:07.167Z,49.13
2023-03-22T09:19:07.301Z,49.28
2023-03-22T09:23:07.866Z,50.24
2023-03-22T09:27:07.823Z,50.43
2023-03-22T09:31:07.606Z,49.76
2023-03-22T09:35:07.855Z,49.75
2023-03-22T09:39:07.828Z,50.11
2023-03-22T09:43:07.868Z,50.42
2023-03-22T09:47:07.872Z,50.09
2023-03-22T09:51:07.886Z,49.95
2023-03-22T09:55:08.334Z,50.34
2023-03-22T09:59:07.975Z,49.52
2023-03-22T10:03:08.037Z,50.02
2023-03-22T10:07:08.052Z,49.97
2023-03-22T10:11:08.142Z,50.26
2023-03-22T10:15:08.120Z,50.85
2023-03-22T10:19:08.368Z,50.48
2023-03-22T10:23:08.175Z,49.95
2023-03-22T10:27:08.159Z,49.35
2023-03-22T10:31:08.375Z,49.64
2023-03-22T10:35:08.153Z,49.98
2023-03-22T10:39:08.373Z,49.80
2023-03-22T10:43:08.244Z,49.04
2023-03-22T10:47:08.505Z,48.74
2023-03-22T10:51:08.358Z,48.45
2023-03-22T10:55:08.321Z,47.92
2023-03-22T10:59:08.274Z,47.29
2023-03-22T11:03:08.402Z,47.90
2023-03-22T11:07:08.385Z,47.55
2023-03-22T11:11:08.337Z,46.95
2023-03-22T11:15:08.381Z,46.65
2023-03-22T11:19:08.363Z,46.69
2023-03-22T11:23:08.362Z,46.73
2023-03-22T11:27:08.418Z,46.56
2023-03-22T11:31:08.443Z,46.25
2023-03-22T11:35:08.879Z,46.52
2023-03-22T11:39:08.994Z,46.21
2023-03-22T11:43:08.886Z,44.91
2023-03-22T11:47:08.427Z,45.33
2023-03-22T11:51:08.412Z,45.65
2023-03-22T11:55:08.369Z,45.47
2023-03-22T11:59:08.384Z,45.46
2023-03-22T12:03:08.506Z,45.96
2023-03-22T12:07:08.924Z,45.72
2023-03-22T12:11:08.363Z,45.58
2023-03-22T12:15:08.332Z,45.26
2023-03-22T12:19:08.294Z,44.79
2023-03-22T12:23:08.285Z,44.81
2023-03-22T12:27:08.286Z,44.92
2023-03-22T12:31:08.462Z,44.72
2023-03-22T12:35:17.224Z,45.15
2023-03-22T12:39:09.400Z,46.55
2023-03-22T12:43:08.171Z,46.28
2023-03-22T12:47:08.256Z,46.43
2023-03-22T12:51:08.097Z,47.23
2023-03-22T12:55:08.151Z,47.75
2023-03-22T12:59:08.139Z,48.14
2023-03-22T13:03:10.370Z,49.16
2023-03-22T13:07:08.145Z,49.33
2023-03-22T13:11:08.075Z,48.02
2023-03-22T13:15:08.104Z,47.48
2023-03-22T13:19:08.021Z,46.78
2023-03-22T13:23:07.994Z,46.97
2023-03-22T13:27:07.963Z,46.65
2023-03-22T13:31:07.928Z,46.83
2023-03-22T13:35:07.909Z,47.70
2023-03-22T13:39:07.867Z,46.85
2023-03-22T13:43:07.840Z,46.90
2023-03-22T13:47:07.807Z,47.62
2023-03-22T13:51:07.798Z,47.86
2023-03-22T13:55:07.734Z,47.85
2023-03-22T13:59:07.709Z,48.14
2023-03-22T14:03:07.712Z,45.38
2023-03-22T14:07:07.632Z,45.13
2023-03-22T14:11:07.546Z,45.35
2023-03-22T14:15:07.515Z,45.32
2023-03-22T14:19:07.523Z,44.97
2023-03-22T14:48:07.951Z,45.86
2023-03-22T14:52:07.931Z,46.12
2023-03-22T14:56:07.856Z,46.13
2023-03-22T15:00:07.843Z,45.33
2023-03-22T15:04:07.830Z,45.58
2023-03-22T15:08:07.757Z,45.34
2023-03-22T15:12:07.758Z,45.34
2023-03-22T15:16:07.737Z,46.22
2023-03-22T15:20:07.673Z,46.36
2023-03-22T15:24:07.672Z,46.29
2023-03-22T15:28:07.562Z,46.55
2023-03-22T15:32:07.528Z,46.95
2023-03-22T15:36:07.612Z,47.12
2023-03-22T15:40:07.450Z,46.87
2023-03-22T15:44:07.436Z,47.52
2023-03-22T15:48:07.372Z,48.11
2023-03-22T15:52:07.345Z,47.43
2023-03-22T15:56:07.370Z,47.83
2023-03-22T16:00:07.265Z,48.25
2023-03-22T16:04:07.232Z,48.21
2023-03-22T16:08:07.230Z,47.87
2023-03-22T16:13:31.938Z,48.73
2023-03-22T16:17:31.912Z,48.11
2023-03-22T16:21:31.841Z,47.36
2023-03-22T16:25:31.809Z,46.63
2023-03-22T16:29:31.751Z,47.98
2023-03-22T16:33:31.788Z,48.14
2023-03-22T16:37:31.704Z,47.61
2023-03-22T16:41:31.666Z,47.26
2023-03-22T16:45:31.659Z,47.09
2023-03-22T16:49:31.591Z,47.21
2023-03-22T16:53:37.871Z,48.00
2023-03-22T16:57:32.528Z,47.35
2023-03-22T17:01:31.528Z,47.01
2023-03-22T17:05:31.500Z,47.69
2023-03-22T17:09:31.717Z,48.20
2023-03-22T17:13:31.883Z,47.26
2023-03-22T17:17:32.053Z,47.18
2023-03-22T17:21:32.229Z,47.88
2023-03-22T17:25:32.416Z,46.10
2023-03-22T17:29:32.599Z,46.00
2023-03-22T17:33:32.783Z,46.18
2023-03-22T17:37:32.991Z,45.64
2023-03-22T17:41:33.133Z,43.83
2023-03-22T17:45:52.629Z,44.06
2023-03-22T17:49:34.320Z,44.52
2023-03-22T17:54:24.171Z,44.44
2023-03-22T18:01:34.243Z,43.96
2023-03-22T18:05:34.139Z,41.22
2023-03-22T18:09:33.089Z,40.07
2023-03-22T18:13:33.041Z,38.98
2023-03-22T18:17:33.036Z,38.25
2023-03-22T18:21:32.999Z,37.61
2023-03-22T18:25:41.491Z,36.97
2023-03-22T18:29:33.928Z,36.55
2023-03-22T18:33:32.854Z,36.28
2023-03-22T18:37:32.986Z,36.06
2023-03-22T18:41:44.833Z,35.73
2023-03-22T18:45:48.102Z,35.66
2023-03-22T18:49:34.009Z,35.28
2023-03-22T18:53:33.006Z,35.28
2023-03-22T18:57:32.947Z,35.10
2023-03-22T19:01:32.898Z,35.06
2023-03-22T19:05:32.850Z,34.95
2023-03-22T19:09:32.820Z,34.95
2023-03-22T19:13:32.793Z,34.88
2023-03-22T19:17:32.741Z,34.87
2023-03-22T19:21:32.962Z,34.85
2023-03-22T19:25:32.704Z,34.73
2023-03-22T19:29:32.668Z,34.66
2023-03-22T19:33:45.701Z,34.53
2023-03-22T19:37:33.649Z,34.47
2023-03-22T19:45:32.480Z,34.54
2023-03-22T19:49:32.481Z,34.47
2023-03-22T19:57:33.440Z,34.53
2023-03-22T20:01:32.393Z,34.50
2023-03-22T20:05:34.976Z,34.48
2023-03-22T20:09:33.305Z,34.39
2023-03-22T20:13:32.252Z,34.24
2023-03-22T20:17:32.244Z,34.33
2023-03-22T20:21:32.176Z,34.33
2023-03-22T20:25:32.193Z,34.59
2023-03-22T20:29:32.294Z,34.59
2023-03-22T20:33:32.414Z,34.76
2023-03-22T20:37:32.450Z,34.88
2023-03-22T20:41:34.315Z,34.94
2023-03-22T20:45:32.541Z,34.97
2023-03-22T20:49:32.515Z,34.96
2023-03-22T20:53:32.448Z,34.97
2023-03-22T20:57:32.439Z,35.00
2023-03-22T21:01:32.372Z,35.06
2023-03-22T21:05:32.337Z,35.14
2023-03-22T21:09:32.301Z,35.16
2023-03-22T21:13:32.270Z,35.21
2023-03-22T21:17:32.245Z,35.31
2023-03-22T21:21:33.517Z,35.41
2023-03-22T21:25:32.170Z,35.46
2023-03-22T21:29:32.122Z,35.45
2023-03-22T21:33:32.165Z,35.38
2023-03-22T21:37:32.351Z,35.43
2023-03-22T21:41:32.547Z,35.38
2023-03-22T21:45:32.710Z,35.42
2023-03-22T21:49:32.948Z,35.51
2023-03-22T21:53:33.159Z,35.71
2023-03-22T21:57:33.294Z,35.73
2023-03-22T22:01:33.447Z,35.67
2023-03-22T22:05:33.517Z,35.82
2023-03-22T22:09:33.537Z,35.85
2023-03-22T22:13:33.653Z,35.80
2023-03-22T22:17:33.689Z,35.71
2023-03-22T22:21:33.711Z,35.54
2023-03-22T22:25:33.696Z,35.47
2023-03-22T22:29:33.708Z,35.68
2023-03-22T22:33:33.692Z,35.77
2023-03-22T22:37:33.724Z,35.91
2023-03-22T22:41:33.729Z,35.87
2023-03-22T22:45:33.703Z,35.70
2023-03-22T22:49:33.747Z,35.69
2023-03-22T22:53:33.918Z,35.51
2023-03-22T22:57:33.837Z,35.67
2023-03-22T23:01:33.922Z,35.90
2023-03-22T23:05:33.895Z,36.00
2023-03-22T23:09:33.934Z,36.12
2023-03-22T23:13:33.928Z,36.17
2023-03-22T23:17:33.935Z,36.24
2023-03-22T23:21:33.893Z,36.34
2023-03-22T23:25:33.913Z,36.46
2023-03-22T23:29:33.890Z,36.52
2023-03-22T23:33:33.867Z,36.50
2023-03-22T23:37:33.905Z,36.58
2023-03-22T23:41:33.901Z,36.60
2023-03-22T23:45:33.975Z,36.58
2023-03-22T23:49:33.973Z,36.68
2023-03-22T23:53:34.063Z,36.53
2023-03-22T23:57:34.126Z,36.45
